TimeEST,TemperatureF,Dew PointF,Humidity,Sea Level PressureIn,VisibilityMPH,Wind Direction,Wind SpeedMPH,Gust SpeedMPH,PrecipitationIn,Events,Conditions,WindDirDegrees,DateUTC
12:53 AM,46.9,43.0,86,29.65,7.0,SW,4.6,-,0.00,,Overcast,230,2012-11-24 05:53:00
1:53 AM,46.9,41.0,80,29.66,9.0,West,9.2,-,N/A,,Overcast,270,2012-11-24 06:53:00
2:53 AM,45.0,32.0,60,29.66,10.0,West,10.4,-,N/A,,Overcast,280,2012-11-24 07:53:00
3:53 AM,44.1,30.0,58,29.67,10.0,WNW,9.2,-,N/A,,Overcast,290,2012-11-24 08:53:00
4:53 AM,42.1,26.1,53,29.67,10.0,West,9.2,18.4,N/A,,Overcast,270,2012-11-24 09:53:00
5:53 AM,39.9,19.9,45,29.69,10.0,WNW,12.7,26.5,N/A,,Mostly Cloudy,300,2012-11-24 10:53:00
6:53 AM,39.0,19.9,46,29.71,10.0,WNW,11.5,20.7,N/A,,Mostly Cloudy,290,2012-11-24 11:53:00
7:53 AM,39.0,19.0,45,29.73,10.0,WNW,15.0,20.7,N/A,,Partly Cloudy,290,2012-11-24 12:53:00
8:53 AM,39.9,19.0,43,29.73,10.0,NW,16.1,25.3,N/A,,Clear,320,2012-11-24 13:53:00
9:53 AM,41.0,18.0,40,29.72,10.0,NW,12.7,24.2,N/A,,Partly Cloudy,310,2012-11-24 14:53:00
10:53 AM,41.0,17.1,38,29.71,10.0,NW,12.7,23.0,N/A,,Scattered Clouds,310,2012-11-24 15:53:00
11:53 AM,42.1,17.1,37,29.69,10.0,NW,15.0,24.2,N/A,,Mostly Cloudy,320,2012-11-24 16:53:00
12:53 PM,41.0,17.1,38,29.68,10.0,West,10.4,23.0,N/A,,Overcast,280,2012-11-24 17:53:00
1:53 PM,39.9,16.0,38,29.68,10.0,WNW,13.8,26.5,N/A,,Overcast,290,2012-11-24 18:53:00
2:53 PM,39.0,17.1,41,29.69,10.0,WNW,15.0,26.5,N/A,,Overcast,290,2012-11-24 19:53:00
3:53 PM,39.0,14.0,36,29.70,10.0,WNW,11.5,24.2,N/A,,Overcast,290,2012-11-24 20:53:00
4:53 PM,37.9,16.0,41,29.72,10.0,WNW,12.7,25.3,N/A,,Overcast,300,2012-11-24 21:53:00
5:53 PM,36.0,16.0,44,29.75,10.0,WNW,12.7,18.4,N/A,,Clear,290,2012-11-24 22:53:00
6:53 PM,36.0,16.0,44,29.75,10.0,West,13.8,24.2,N/A,,Overcast,270,2012-11-24 23:53:00
7:53 PM,35.1,17.1,48,29.76,10.0,Variable,6.9,-,N/A,,Clear,0,2012-11-25 00:53:00
8:53 PM,33.1,18.0,54,29.78,10.0,West,5.8,-,N/A,,Clear,270,2012-11-25 01:53:00
9:53 PM,34.0,18.0,52,29.78,10.0,West,8.1,-,N/A,,Overcast,270,2012-11-25 02:53:00
10:53 PM,34.0,19.0,54,29.79,10.0,WNW,8.1,19.6,N/A,,Overcast,300,2012-11-25 03:53:00
11:53 PM,34.0,18.0,52,29.80,10.0,WNW,11.5,18.4,N/A,,Overcast,290,2012-11-25 04:53:00